createdAt,value
2023-01-03T04:46:13.996Z,829.15
2023-01-03T04:48:40.684Z,824.13
2023-01-03T04:51:07.317Z,820.10
2023-01-03T04:53:33.958Z,823.53
2023-01-03T04:56:00.563Z,824.57
2023-01-03T04:58:27.364Z,824.23
2023-01-03T05:01:03.181Z,824.78
2023-01-03T05:03:30.464Z,835.30
2023-01-03T05:06:01.019Z,833.13
2023-01-03T05:08:27.708Z,833.88
2023-01-03T05:10:54.438Z,829.13
2023-01-03T05:13:21.329Z,841.08
2023-01-03T05:15:48.477Z,817.40
2023-01-03T05:18:15.440Z,816.58
2023-01-03T05:21:00.469Z,812.72
2023-01-03T05:23:46.032Z,814.13
2023-01-03T05:26:21.461Z,816.58
2023-01-03T05:28:52.042Z,818.63
2023-01-03T05:31:19.190Z,817.35
2023-01-03T05:33:46.053Z,818.58
2023-01-03T05:36:12.737Z,820.42
2023-01-03T05:38:39.471Z,820.83
2023-01-03T05:41:06.699Z,826.58
2023-01-03T05:43:33.364Z,828.15
2023-01-03T05:46:00.165Z,818.95
2023-01-03T05:48:27.373Z,815.25
2023-01-03T05:50:57.824Z,826.22
2023-01-03T05:53:25.350Z,820.13
2023-01-03T05:55:52.047Z,812.60
2023-01-03T05:58:18.926Z,812.05
2023-01-03T06:00:45.648Z,814.92
2023-01-03T06:03:12.298Z,821.13
2023-01-03T06:05:41.881Z,821.30
2023-01-03T06:08:11.294Z,813.17
2023-01-03T06:10:40.422Z,811.95
2023-01-03T06:13:07.162Z,815.45
2023-01-03T06:15:33.802Z,828.03
2023-01-03T06:18:02.458Z,819.22
2023-01-03T06:20:30.179Z,819.13
2023-01-03T06:22:57.419Z,818.53
2023-01-03T06:25:24.198Z,820.00
2023-01-03T06:27:50.971Z,821.70
2023-01-03T06:30:17.982Z,817.33
2023-01-03T06:32:44.699Z,822.00
2023-01-03T06:35:11.793Z,815.20
2023-01-03T06:37:38.945Z,817.78
2023-01-03T06:40:06.415Z,813.80
2023-01-03T06:42:42.403Z,815.85
2023-01-03T06:45:28.675Z,813.20
2023-01-03T06:48:14.101Z,816.57
2023-01-03T06:51:01.153Z,819.53
2023-01-03T06:53:33.356Z,816.58
2023-01-03T06:55:59.940Z,809.33
2023-01-03T06:58:26.895Z,812.50
2023-01-03T07:00:54.884Z,812.05
2023-01-03T07:03:21.927Z,815.25
2023-01-03T07:05:48.882Z,811.65
2023-01-03T07:08:15.670Z,801.25
2023-01-03T07:10:42.508Z,811.05
2023-01-03T07:13:27.636Z,806.10
2023-01-03T07:15:54.384Z,813.55
2023-01-03T07:18:21.307Z,810.17
2023-01-03T07:20:48.010Z,815.07
2023-01-03T07:23:14.786Z,814.05
2023-01-03T07:25:41.818Z,805.45
2023-01-03T07:28:13.138Z,806.53
2023-01-03T07:30:42.417Z,810.28
2023-01-03T07:33:10.977Z,816.50
2023-01-03T07:35:37.885Z,810.00
2023-01-03T07:38:05.670Z,801.33
2023-01-03T07:40:32.684Z,801.75
2023-01-03T07:43:18.532Z,807.50
2023-01-03T07:45:46.494Z,797.33
2023-01-03T07:48:13.777Z,803.55
2023-01-03T07:50:41.475Z,804.58
2023-01-03T07:53:09.892Z,807.42
2023-01-03T07:55:37.149Z,798.17
2023-01-03T07:58:04.111Z,802.75
2023-01-03T08:00:30.966Z,815.55
2023-01-03T08:02:57.688Z,806.83
2023-01-03T08:05:25.649Z,801.67
2023-01-03T08:07:53.307Z,807.72
2023-01-03T08:10:39.456Z,814.97
2023-01-03T08:13:18.840Z,817.38
2023-01-03T08:15:46.185Z,815.75
2023-01-03T08:18:14.080Z,809.47
2023-01-03T08:20:40.994Z,807.33
2023-01-03T08:23:07.880Z,809.65
2023-01-03T08:25:34.789Z,801.03
2023-01-03T08:28:01.610Z,807.53
2023-01-03T08:30:29.383Z,811.95
2023-01-03T08:32:58.883Z,812.95
2023-01-03T08:35:29.662Z,811.55
2023-01-03T08:37:56.414Z,814.60
2023-01-03T08:40:23.070Z,814.60
2023-01-03T08:42:49.816Z,820.50
2023-01-03T08:45:18.449Z,824.20
2023-01-03T08:47:46.385Z,822.45
2023-01-03T08:50:13.387Z,826.55
2023-01-03T08:52:40.287Z,825.08
2023-01-03T08:55:08.199Z,835.45
2023-01-03T08:57:34.906Z,836.78
2023-01-03T09:00:01.675Z,838.47
2023-01-03T09:02:28.712Z,834.50
2023-01-03T09:04:55.725Z,847.33
2023-01-03T09:07:22.461Z,854.28
2023-01-03T09:09:49.039Z,851.83
2023-01-03T09:12:15.692Z,856.95
2023-01-03T09:14:42.353Z,849.85
2023-01-03T09:17:09.004Z,839.72
2023-01-03T09:19:35.617Z,843.85
2023-01-03T09:22:02.451Z,843.10
2023-01-03T09:24:29.179Z,837.92
2023-01-03T09:26:55.851Z,845.40
2023-01-03T09:29:22.832Z,843.60
2023-01-03T09:31:51.330Z,845.53
2023-01-03T09:34:18.553Z,838.97
2023-01-03T09:36:45.398Z,840.85
2023-01-03T09:39:12.136Z,844.03
2023-01-03T09:41:39.873Z,848.40
2023-01-03T09:44:08.840Z,846.85
2023-01-03T09:46:36.864Z,835.75
2023-01-03T09:49:06.881Z,849.85
2023-01-03T09:52:06.746Z,847.63
2023-01-03T09:54:55.525Z,841.60
2023-01-03T09:57:50.644Z,847.70
2023-01-03T10:00:36.205Z,853.55
2023-01-03T10:03:50.175Z,847.15
2023-01-03T10:10:48.570Z,844.10
2023-01-03T10:13:43.321Z,850.47
2023-01-03T10:16:30.979Z,854.38
2023-01-03T10:19:21.882Z,853.73
2023-01-03T10:22:09.042Z,860.85
2023-01-03T10:24:55.796Z,860.13
2023-01-03T10:27:25.969Z,860.85
2023-01-03T10:29:56.756Z,856.63
2023-01-03T10:32:41.976Z,857.47
2023-01-03T10:35:23.982Z,863.40
2023-01-03T10:37:52.905Z,864.25
2023-01-03T10:40:20.039Z,855.28
2023-01-03T10:42:50.182Z,855.75
2023-01-03T10:45:21.411Z,858.22
2023-01-03T10:48:02.098Z,860.40
2023-01-03T10:50:30.006Z,860.65
2023-01-03T10:53:05.663Z,865.80
2023-01-03T10:55:35.011Z,859.60
2023-01-03T10:58:03.633Z,863.67
2023-01-03T11:00:35.883Z,860.50
2023-01-03T11:03:18.176Z,863.85
2023-01-03T11:06:07.315Z,855.03
2023-01-03T11:08:46.507Z,863.77
2023-01-03T11:11:53.004Z,867.17
2023-01-03T11:14:23.950Z,860.28
2023-01-03T11:17:03.933Z,865.72
2023-01-03T11:19:32.738Z,860.33
2023-01-03T11:22:15.067Z,863.78
2023-01-03T11:25:12.993Z,867.60
2023-01-03T11:28:00.788Z,866.15
2023-01-03T11:30:50.968Z,868.50
2023-01-03T11:33:52.660Z,870.83
2023-01-03T11:36:34.090Z,870.87
2023-01-03T11:39:36.395Z,870.05
2023-01-03T11:42:33.182Z,870.30
2023-01-03T11:45:26.538Z,869.92
2023-01-03T11:48:12.211Z,866.95
2023-01-03T11:50:59.571Z,875.58
2023-01-03T11:53:51.796Z,877.38
2023-01-03T11:56:37.252Z,878.70
2023-01-03T11:59:32.233Z,886.15
2023-01-03T12:02:38.018Z,886.97
2023-01-03T12:05:37.618Z,890.00
2023-01-03T12:08:04.205Z,884.33
2023-01-03T12:10:39.789Z,890.33
2023-01-03T12:13:35.127Z,888.63
2023-01-03T12:16:08.576Z,890.70
2023-01-03T12:18:55.053Z,884.80
2023-01-03T12:21:27.331Z,880.20
2023-01-03T12:24:29.277Z,883.67
2023-01-03T12:27:03.941Z,878.65
2023-01-03T12:29:43.889Z,879.53
2023-01-03T12:32:42.627Z,887.42
2023-01-03T12:35:18.974Z,893.97
2023-01-03T12:37:49.710Z,908.63
2023-01-03T12:40:46.445Z,921.25
2023-01-03T12:43:28.693Z,926.08
2023-01-03T12:46:13.266Z,933.50
2023-01-03T12:49:17.756Z,937.80
2023-01-03T12:51:44.610Z,941.00
2023-01-03T12:54:33.619Z,943.22
2023-01-03T12:57:09.260Z,943.95
2023-01-03T13:00:02.116Z,940.85
2023-01-03T13:02:54.488Z,937.90
2023-01-03T13:05:36.690Z,934.72
2023-01-03T13:08:40.107Z,933.55
2023-01-03T13:11:21.582Z,930.05
2023-01-03T13:13:57.004Z,925.38
2023-01-03T13:16:53.422Z,924.47
2023-01-03T13:19:20.165Z,924.67
2023-01-03T13:21:53.154Z,916.67
2023-01-03T13:24:43.572Z,905.70
2023-01-03T13:27:19.459Z,906.05
2023-01-03T13:29:58.410Z,901.50
2023-01-03T13:32:36.351Z,901.90
2023-01-03T13:35:04.786Z,902.63
2023-01-03T13:37:51.211Z,899.28
2023-01-03T13:40:52.132Z,897.23
2023-01-03T13:43:17.896Z,895.63
2023-01-03T13:45:44.496Z,904.42
2023-01-03T13:48:14.108Z,895.67
2023-01-03T13:50:40.782Z,896.67
2023-01-03T13:53:10.262Z,896.35
2023-01-03T13:56:20.647Z,888.43
2023-01-03T13:58:52.124Z,882.35
2023-01-03T14:01:44.472Z,889.08
2023-01-03T14:04:31.419Z,888.75
2023-01-03T14:07:04.077Z,892.83
2023-01-03T14:10:08.234Z,891.40
2023-01-03T14:12:56.295Z,884.35
2023-01-03T14:15:27.368Z,890.83
2023-01-03T14:18:02.342Z,887.90
2023-01-03T14:20:34.164Z,874.15
2023-01-03T14:23:31.304Z,870.13
2023-01-03T14:25:53.281Z,874.65
2023-01-03T14:28:31.706Z,876.72
2023-01-03T14:31:01.277Z,870.55
2023-01-03T14:33:56.719Z,873.38
2023-01-03T14:36:23.830Z,874.47
2023-01-03T14:38:59.521Z,872.60
2023-01-03T14:41:38.685Z,866.70
2023-01-03T14:44:25.980Z,868.65
2023-01-03T14:47:03.649Z,866.58
2023-01-03T14:49:36.454Z,864.45
2023-01-03T14:52:11.745Z,852.28
2023-01-03T14:54:42.605Z,850.03
2023-01-03T14:57:20.491Z,850.78
2023-01-03T14:59:48.413Z,853.63
2023-01-03T15:02:15.898Z,844.67
2023-01-03T15:04:45.139Z,851.42
2023-01-03T15:07:39.157Z,842.90
2023-01-03T15:10:10.835Z,842.83
2023-01-03T15:12:40.806Z,852.22
2023-01-03T15:15:28.884Z,849.45
2023-01-03T15:18:02.631Z,841.63
2023-01-03T15:20:36.811Z,845.75
2023-01-03T15:23:04.547Z,842.15
2023-01-03T15:25:38.798Z,850.30
2023-01-03T15:28:38.327Z,831.85
2023-01-03T15:31:23.685Z,833.72
2023-01-03T15:34:20.121Z,811.55
2023-01-03T15:36:57.125Z,822.45
2023-01-03T15:39:26.288Z,809.67
2023-01-03T15:42:43.590Z,817.53
2023-01-03T15:45:28.672Z,827.28
2023-01-03T15:47:59.455Z,820.83
2023-01-03T15:50:53.941Z,817.75
2023-01-03T15:53:26.697Z,820.00
2023-01-03T15:55:59.431Z,814.75
2023-01-03T15:58:27.800Z,815.88
2023-01-03T16:00:55.054Z,815.63
2023-01-03T16:03:23.642Z,814.45
2023-01-03T16:05:50.311Z,809.90
2023-01-03T16:08:23.819Z,805.20
2023-01-03T16:10:51.663Z,800.65
2023-01-03T16:13:19.584Z,798.38
2023-01-03T16:15:47.587Z,789.03
2023-01-03T16:18:16.844Z,783.00
2023-01-03T16:20:44.669Z,781.20
2023-01-03T16:23:23.598Z,781.65
2023-01-03T16:25:50.335Z,782.58
2023-01-03T16:28:17.010Z,784.90
2023-01-03T16:30:43.804Z,778.00
2023-01-03T16:33:20.953Z,787.47
2023-01-03T16:35:48.494Z,785.95
2023-01-03T16:38:15.506Z,778.33
2023-01-03T16:40:43.713Z,778.63
2023-01-03T16:43:10.332Z,781.70
2023-01-03T16:45:45.281Z,778.08
2023-01-03T16:48:19.455Z,781.53
2023-01-03T16:50:46.976Z,765.20
2023-01-03T16:53:25.202Z,767.00
2023-01-03T16:55:54.675Z,764.38
2023-01-03T16:58:23.783Z,766.65
2023-01-03T17:00:51.300Z,763.33
2023-01-03T17:03:18.321Z,769.53
2023-01-03T17:05:45.177Z,765.72
2023-01-03T17:08:24.844Z,770.05
2023-01-03T17:10:54.463Z,774.38
2023-01-03T17:13:42.023Z,768.00
2023-01-03T17:16:17.138Z,774.53
2023-01-03T17:18:45.097Z,771.30
2023-01-03T17:21:24.537Z,770.05
2023-01-03T17:23:54.103Z,769.53
2023-01-03T17:26:23.076Z,776.05
2023-01-03T17:28:51.478Z,759.38
2023-01-03T17:31:24.071Z,769.80
2023-01-03T17:33:51.538Z,765.28
2023-01-03T17:36:26.745Z,761.43
2023-01-03T17:38:54.988Z,765.50
2023-01-03T17:41:23.974Z,765.72
2023-01-03T17:43:50.820Z,759.97
2023-01-03T17:46:38.490Z,760.45
2023-01-03T17:49:24.229Z,768.20
2023-01-03T17:51:58.012Z,762.78
2023-01-03T17:54:29.563Z,769.45
2023-01-03T17:56:58.310Z,770.63
2023-01-03T17:59:25.508Z,763.87
2023-01-03T18:01:52.624Z,759.45
2023-01-03T18:04:22.485Z,770.88
2023-01-03T18:06:54.746Z,757.25
2023-01-03T18:09:22.243Z,766.20
2023-01-03T18:11:49.120Z,763.28
2023-01-03T18:14:16.269Z,769.28
2023-01-03T18:16:43.252Z,771.75
2023-01-03T18:19:10.222Z,762.08
2023-01-03T18:21:37.846Z,758.30
2023-01-03T18:24:08.101Z,766.58
2023-01-03T18:26:37.951Z,764.35
2023-01-03T18:29:06.089Z,761.35
2023-01-03T18:31:32.930Z,769.25
2023-01-03T18:34:04.023Z,768.60
2023-01-03T18:36:36.246Z,767.10
2023-01-03T18:39:06.153Z,760.15
2023-01-03T18:41:34.223Z,759.40
2023-01-03T18:44:01.375Z,767.80
2023-01-03T18:46:28.687Z,761.00
2023-01-03T18:48:55.723Z,762.47
2023-01-03T18:51:28.701Z,770.03
2023-01-03T18:53:59.535Z,775.80
2023-01-03T18:56:35.054Z,767.85
2023-01-03T18:59:04.985Z,770.00
2023-01-03T19:01:31.803Z,761.97
2023-01-03T19:03:59.026Z,763.85
2023-01-03T19:06:31.448Z,767.88
2023-01-03T19:09:00.724Z,767.40
2023-01-03T19:11:34.657Z,775.63
2023-01-03T19:14:03.054Z,770.35
2023-01-03T19:16:32.625Z,767.05
2023-01-03T19:19:00.171Z,773.05
2023-01-03T19:21:31.902Z,771.80
2023-01-03T19:24:07.019Z,769.28
2023-01-03T19:26:44.520Z,770.95
2023-01-03T19:29:22.512Z,775.97
2023-01-03T19:31:51.776Z,774.88
2023-01-03T19:34:24.464Z,777.55
2023-01-03T19:36:51.642Z,784.67
2023-01-03T19:39:24.851Z,778.60
2023-01-03T19:42:16.871Z,772.50
2023-01-03T19:44:43.889Z,781.53
2023-01-03T19:47:15.839Z,764.03
2023-01-03T19:49:43.662Z,776.47
2023-01-03T19:52:10.363Z,773.67
2023-01-03T19:54:36.985Z,774.20
2023-01-03T19:57:03.703Z,773.42
2023-01-03T19:59:36.521Z,777.25
2023-01-03T20:02:27.634Z,774.67
2023-01-03T20:04:54.584Z,766.28
2023-01-03T20:07:21.609Z,768.22
2023-01-03T20:09:48.194Z,765.88
2023-01-03T20:12:18.551Z,765.40
2023-01-03T20:14:50.031Z,763.40
2023-01-03T20:17:24.982Z,760.97
2023-01-03T20:19:52.547Z,759.97
2023-01-03T20:22:53.445Z,768.85
2023-01-03T20:25:29.382Z,765.72
2023-01-03T20:27:57.074Z,762.67
2023-01-03T20:30:25.783Z,764.08
2023-01-03T20:32:52.493Z,768.00
2023-01-03T20:38:11.373Z,763.00
2023-01-03T20:40:39.010Z,770.83
2023-01-03T20:43:05.788Z,762.95
2023-01-03T20:45:32.583Z,766.27
2023-01-03T20:47:59.691Z,759.50
2023-01-03T20:50:28.140Z,751.97
2023-01-03T20:52:55.419Z,755.15
2023-01-03T20:55:25.226Z,760.40
2023-01-03T20:57:52.025Z,752.05
2023-01-03T21:00:25.042Z,756.63
2023-01-03T21:02:52.349Z,743.30
2023-01-03T21:05:19.313Z,736.60
2023-01-03T21:08:04.878Z,734.08
2023-01-03T21:10:40.895Z,736.35
2023-01-03T21:13:08.896Z,714.15
2023-01-03T21:15:36.781Z,709.80
2023-01-03T21:18:04.632Z,702.97
2023-01-03T21:20:32.243Z,698.38
2023-01-03T21:22:59.150Z,710.05
2023-01-03T21:25:30.240Z,712.70
2023-01-03T21:27:56.936Z,715.67
2023-01-03T21:30:24.517Z,712.53
2023-01-03T21:32:51.591Z,712.85
2023-01-03T21:35:20.414Z,709.38
2023-01-03T21:37:48.013Z,713.45
2023-01-03T21:40:26.816Z,732.33
2023-01-03T21:43:03.753Z,707.05
2023-01-03T21:45:44.547Z,701.22
2023-01-03T21:48:13.211Z,691.22
2023-01-03T21:50:42.574Z,690.78
2023-01-03T21:53:20.939Z,697.13
2023-01-03T21:55:48.438Z,681.72
2023-01-03T21:58:18.012Z,679.92
2023-01-03T22:00:44.818Z,680.45
2023-01-03T22:03:34.688Z,670.00
2023-01-03T22:06:19.477Z,674.15
2023-01-03T22:08:46.115Z,667.00
2023-01-03T22:11:12.879Z,674.97
2023-01-03T22:13:39.655Z,683.85
2023-01-03T22:16:08.422Z,679.70
2023-01-03T22:18:35.554Z,684.07
2023-01-03T22:21:08.000Z,684.15
2023-01-03T22:23:35.685Z,682.47
2023-01-03T22:26:07.747Z,684.90
2023-01-03T22:28:36.328Z,696.97
2023-01-03T22:31:10.448Z,682.35
2023-01-03T22:33:37.159Z,693.90
2023-01-03T22:36:04.132Z,682.42
2023-01-03T22:38:30.848Z,686.30
2023-01-03T22:40:57.489Z,684.55
2023-01-03T22:43:24.174Z,693.78
2023-01-03T22:45:50.841Z,686.78
2023-01-03T22:48:17.560Z,679.35
2023-01-03T22:50:44.229Z,681.20
2023-01-03T22:53:10.841Z,685.10
2023-01-03T22:55:42.008Z,683.15
2023-01-03T22:58:10.680Z,684.40
2023-01-03T23:00:37.291Z,685.83
2023-01-03T23:03:04.068Z,690.77
2023-01-03T23:05:30.732Z,682.42
2023-01-03T23:07:57.313Z,694.05
2023-01-03T23:10:23.911Z,697.35
2023-01-03T23:12:59.528Z,692.13
2023-01-03T23:15:27.993Z,689.80
2023-01-03T23:17:57.608Z,689.78
2023-01-03T23:20:48.936Z,690.50
2023-01-03T23:23:15.562Z,685.47
2023-01-03T23:25:42.207Z,685.30
2023-01-03T23:28:08.834Z,690.75
2023-01-03T23:30:35.814Z,698.20
2023-01-03T23:33:02.560Z,694.00
2023-01-03T23:35:29.208Z,692.63
2023-01-03T23:37:57.763Z,687.00
2023-01-03T23:40:24.383Z,696.13
2023-01-03T23:42:51.037Z,686.78
2023-01-03T23:45:17.660Z,691.40
2023-01-03T23:47:44.317Z,687.03
2023-01-03T23:50:10.955Z,690.83
2023-01-03T23:52:37.596Z,685.60
2023-01-03T23:55:11.925Z,688.03
2023-01-03T23:57:39.788Z,688.25
